Aérodrome :
LOGIN :

S'inscrire | Disclaimer

   EN    FR    IT 

 










Légende :    VFR   VFR Marginal   IFR   IFR Intensif   IFR Très Intensif
Visi : 
Plafond : 
>= 8 km
>= 3000ft
5 à 8 km
1000 à 3000 ft
1500m à 5 km
500 à 1000 ft
800 à 1500m
200 à 500 ft
< 800m
< 200 ft
Symboles :   Orages  Brouillard  Fortes neiges  Fortes précipitations  Vent > 20 kt
SIGMETs :   Divers  Orages  Givrage  Turbulence  Onde Orograph.  Cendres Volcan.







- Altitude de l'aérodrome : 290 ft
- Code IATA : LAI
- Voir les cartes d'approche


LFRO - Lannion

DERNIER METAR :
  • 161600Z AUTO 17010KT CAVOK 13/09 Q1021 NOSIG

METARs EXPIRÉS :
  • 161530Z AUTO 15010KT 120V190 CAVOK 13/09 Q1021 NOSIG
  • 161500Z AUTO 16011KT CAVOK 13/09 Q1021 NOSIG
  • 161430Z AUTO 16009KT CAVOK 14/09 Q1022 NOSIG
  • 161400Z AUTO 15009KT 120V180 9999 FEW017 14/10 Q1022 NOSIG
  • 161330Z AUTO 16008KT 130V190 9999 FEW014 14/10 Q1022 NOSIG
  • 161300Z AUTO 17008KT 130V200 9999 BKN013 14/11 Q1023 BECMG SCT020 SCT040

TAF AMD TAF LFRO
Valide du 16 à 12h jusqu'au 17 à 12h UTC


161111Z 1612/1712 17010KT 8000 OVC004
BECMG 1612/1614 SCT020 SCT040
BECMG 1621/1624 16012G25KT
BECMG 1706/1708 20015G25KT BKN003
BECMG 1710/1712 4000 RADZ OVC002
Pas de NOTAMs connus pour ce terrain.



MET'MAP, la Météo Aéronautique d'un coup d'oeil ! - Copyright ORBIFLY Décembre 2007 - Disclaimer

ORBIFLY MET'MAP TEAM :

Programmation & Développement : Alexandra Zaïnal
Conception & Développement : Baudouin d'Aumeries
Co-Programmation & Développement : Marc-Olivier Méhu
Soutien technique & logistique : Manuel Goepfert

Contact : metmap@orbifly.com




SOURCES & CREDITS :

   NOAA